Time;durP1;ratioP1;P1;durP2;ratioP2;P2;SDS_P1;SDS_P2;PMS_P1;PMS_P2;Temp;Humidity;BMP_temperature;BMP_pressure;BME280_temperature;BME280_humidity;BME280_pressure;Samples;Min_cycle;Max_cycle;Signal;HPM_P1;HPM_P2
2021/04/11 00:02:08;;;;;;;3.17;2.87;;;12.90;99.90;;;;;;5073117;28;20199;-79
2021/04/11 00:04:34;;;;;;;3.40;3.10;;;12.90;99.90;;;;;;5074437;28;20173;-78
2021/04/11 00:07:03;;;;;;;3.67;3.33;;;12.90;99.90;;;;;;5073959;28;20657;-78
2021/04/11 00:09:29;;;;;;;3.15;2.85;;;12.90;99.90;;;;;;5072824;28;20659;-79
2021/04/11 00:11:57;;;;;;;4.70;2.85;;;12.90;99.90;;;;;;5074241;28;20552;-78
2021/04/11 00:14:23;;;;;;;4.00;3.40;;;12.90;99.90;;;;;;5074484;28;20160;-80
2021/04/11 00:16:49;;;;;;;3.67;2.90;;;13.00;99.90;;;;;;5072403;28;20177;-79
2021/04/11 00:19:14;;;;;;;3.13;2.90;;;13.00;99.90;;;;;;5072788;28;20172;-79
2021/04/11 00:21:40;;;;;;;2.60;2.40;;;13.00;99.90;;;;;;5074059;28;20559;-79
2021/04/11 00:24:06;;;;;;;3.07;2.87;;;13.00;99.90;;;;;;5073782;28;20601;-79
2021/04/11 00:26:32;;;;;;;3.60;3.30;;;13.00;99.90;;;;;;5072402;28;20251;-79
2021/04/11 00:28:57;;;;;;;3.50;2.67;;;13.00;99.90;;;;;;5072435;28;20578;-79
2021/04/11 00:31:23;;;;;;;3.67;2.83;;;13.00;99.90;;;;;;5073697;28;20211;-79
2021/04/11 00:33:49;;;;;;;2.33;2.13;;;13.10;99.90;;;;;;5072646;28;20199;-79
2021/04/11 00:36:17;;;;;;;3.00;2.60;;;13.10;99.90;;;;;;5073854;28;20537;-79
2021/04/11 00:38:43;;;;;;;4.82;2.53;;;13.10;99.90;;;;;;5082946;28;20213;-79
2021/04/11 00:41:40;;;;;;;4.13;2.88;;;13.20;99.90;;;;;;5088775;28;20207;-79
2021/04/11 00:44:07;;;;;;;3.17;2.63;;;13.20;99.90;;;;;;5092719;28;20665;-79
2021/04/11 00:46:56;;;;;;;2.20;2.10;;;13.20;99.90;;;;;;5075284;28;20164;-79
2021/04/11 00:49:40;;;;;;;3.67;2.50;;;13.10;99.90;;;;;;5092438;28;20167;-79
2021/04/11 00:52:09;;;;;;;2.53;2.33;;;13.20;99.90;;;;;;5092557;28;20348;-80
2021/04/11 00:54:37;;;;;;;3.17;2.88;;;13.20;99.90;;;;;;5075653;28;20178;-80
2021/04/11 00:57:05;;;;;;;3.30;3.00;;;13.20;99.90;;;;;;5075320;28;20266;-78
2021/04/11 00:59:31;;;;;;;3.25;2.60;;;13.20;99.90;;;;;;5093717;28;20188;-78
2021/04/11 01:01:57;;;;;;;3.65;2.50;;;13.20;99.90;;;;;;5093676;28;20674;-78
2021/04/11 01:04:23;;;;;;;3.47;2.70;;;13.20;99.90;;;;;;5093571;28;20172;-78
2021/04/11 01:06:54;;;;;;;2.70;2.50;;;13.20;99.90;;;;;;5092055;28;20664;-79
2021/04/11 01:09:25;;;;;;;3.05;2.75;;;13.20;99.90;;;;;;5092149;28;20160;-78
2021/04/11 01:11:55;;;;;;;2.88;2.53;;;13.20;99.90;;;;;;5091966;28;20569;-79
2021/04/11 01:14:28;;;;;;;2.58;2.35;;;13.20;99.90;;;;;;5092319;28;20190;-78
2021/04/11 01:16:55;;;;;;;4.47;3.40;;;13.20;99.90;;;;;;5091784;28;20160;-79
2021/04/11 01:19:25;;;;;;;3.70;2.80;;;13.20;99.90;;;;;;5092071;28;20172;-79
2021/04/11 01:21:51;;;;;;;2.70;2.50;;;13.20;99.90;;;;;;5092014;28;20163;-79
2021/04/11 01:24:41;;;;;;;2.97;2.67;;;13.20;99.90;;;;;;5075125;28;20229;-79
2021/04/11 01:27:10;;;;;;;2.10;1.92;;;13.20;99.90;;;;;;5074494;28;20175;-79
2021/04/11 01:29:39;;;;;;;2.50;2.30;;;13.30;99.90;;;;;;5091683;28;20198;-79
2021/04/11 01:32:07;;;;;;;3.88;2.03;;;13.30;99.90;;;;;;5091788;28;20583;-79
2021/04/11 01:34:35;;;;;;;2.22;2.03;;;13.30;99.90;;;;;;5091736;28;20163;-79
2021/04/11 01:37:03;;;;;;;2.42;2.20;;;13.30;99.90;;;;;;5091535;28;20535;-79
2021/04/11 01:39:35;;;;;;;2.35;2.15;;;13.30;99.90;;;;;;5091633;28;20282;-79
2021/04/11 01:42:02;;;;;;;2.58;2.38;;;13.30;99.90;;;;;;5091733;28;20710;-77
2021/04/11 01:44:33;;;;;;;2.70;2.50;;;13.30;99.90;;;;;;5091484;28;20211;-79
2021/04/11 01:47:00;;;;;;;2.20;1.80;;;13.30;99.90;;;;;;5091136;28;20179;-79
2021/04/11 01:49:31;;;;;;;2.30;2.10;;;13.20;99.90;;;;;;5091404;28;20242;-79
2021/04/11 01:52:08;;;;;;;3.58;2.00;;;13.20;99.90;;;;;;5074248;28;20209;-79
2021/04/11 01:54:36;;;;;;;2.53;2.33;;;13.20;99.90;;;;;;5091452;28;20633;-79
2021/04/11 01:57:30;;;;;;;1.60;1.50;;;13.20;99.90;;;;;;5091121;28;20199;-79
2021/04/11 02:00:18;;;;;;;2.10;1.90;;;13.20;99.90;;;;;;5091204;28;20232;-79
2021/04/11 02:02:55;;;;;;;2.45;1.92;;;13.20;99.90;;;;;;5075144;28;20172;-79
2021/04/11 02:05:21;;;;;;;2.65;1.65;;;13.20;99.90;;;;;;5091581;28;20643;-79
2021/04/11 02:07:53;;;;;;;2.28;1.75;;;13.20;99.90;;;;;;5092190;28;20168;-79
2021/04/11 02:10:31;;;;;;;2.20;2.00;;;13.20;99.90;;;;;;5091032;28;20199;-79
2021/04/11 02:13:10;;;;;;;2.70;2.50;;;13.20;99.90;;;;;;5091045;28;20164;-80
2021/04/11 02:15:43;;;;;;;1.75;1.65;;;13.20;99.90;;;;;;5074143;28;20220;-80
2021/04/11 02:18:11;;;;;;;2.35;2.15;;;13.20;99.90;;;;;;5090642;28;20647;-78
2021/04/11 02:20:38;;;;;;;3.05;2.50;;;13.20;99.90;;;;;;5073847;28;20195;-78
2021/04/11 02:23:06;;;;;;;2.28;2.00;;;13.20;99.90;;;;;;5090786;28;20168;-78
2021/04/11 02:25:39;;;;;;;3.22;2.60;;;13.20;99.90;;;;;;5090941;28;20183;-78
2021/04/11 02:28:08;;;;;;;2.28;2.08;;;13.20;99.90;;;;;;5090432;28;20175;-79
2021/04/11 02:30:46;;;;;;;2.88;2.67;;;13.20;99.90;;;;;;5091760;28;20200;-79
2021/04/11 02:33:16;;;;;;;2.67;2.42;;;13.20;99.90;;;;;;5074304;28;20540;-79
2021/04/11 02:35:42;;;;;;;2.10;1.88;;;13.20;99.90;;;;;;5108703;28;20170;-79
2021/04/11 02:38:10;;;;;;;2.80;2.55;;;13.20;99.90;;;;;;5114592;28;20172;-79
2021/04/11 02:40:41;;;;;;;2.72;2.53;;;13.20;99.90;;;;;;5115227;28;20183;-80
2021/04/11 02:43:14;;;;;;;3.83;2.72;;;13.20;99.90;;;;;;5115347;28;20221;-79
2021/04/11 02:45:44;;;;;;;3.40;2.50;;;13.20;99.90;;;;;;5115734;28;20195;-79
2021/04/11 02:48:13;;;;;;;2.60;2.40;;;13.30;99.90;;;;;;5114640;28;20195;-79
2021/04/11 02:50:47;;;;;;;2.80;2.60;;;13.30;99.90;;;;;;5115087;28;20203;-79
2021/04/11 02:53:22;;;;;;;2.40;2.20;;;13.30;99.90;;;;;;5089748;28;20167;-79
2021/04/11 02:55:53;;;;;;;2.70;2.50;;;13.30;99.90;;;;;;5091378;28;20223;-79
2021/04/11 02:58:21;;;;;;;2.33;2.13;;;13.30;99.90;;;;;;5091233;28;20168;-79
2021/04/11 03:00:58;;;;;;;2.92;2.65;;;13.30;99.90;;;;;;5091166;28;20194;-79
2021/04/11 03:03:27;;;;;;;3.30;2.10;;;13.30;99.90;;;;;;5094956;28;20179;-80
2021/04/11 03:05:57;;;;;;;2.22;2.03;;;13.30;99.90;;;;;;5095960;28;20164;-79
2021/04/11 03:08:28;;;;;;;2.05;1.85;;;13.30;99.90;;;;;;5095935;28;20182;-79
2021/04/11 03:11:15;;;;;;;1.92;1.83;;;13.30;99.90;;;;;;5095942;28;20221;-79
2021/04/11 03:13:43;;;;;;;8.80;8.10;;;13.30;99.90;;;;;;5095075;28;20540;-79
2021/04/11 03:16:09;;;;;;;12.07;11.07;;;13.30;99.90;;;;;;5094806;28;20200;-79
2021/04/11 03:18:37;;;;;;;12.10;11.10;;;13.20;99.90;;;;;;5094422;28;20167;-79
2021/04/11 03:21:06;;;;;;;12.95;11.68;;;13.20;99.90;;;;;;5094120;28;20658;-79
2021/04/11 03:23:33;;;;;;;11.73;10.73;;;13.10;99.90;;;;;;5095695;28;20179;-79
2021/04/11 03:26:18;;;;;;;11.50;10.40;;;13.00;99.90;;;;;;5094460;28;20676;-79
2021/04/11 03:28:55;;;;;;;12.35;11.25;;;12.90;99.90;;;;;;5077853;28;20207;-80
2021/04/11 03:31:42;;;;;;;11.50;10.40;;;12.80;99.90;;;;;;5093979;28;20206;-79
2021/04/11 03:34:12;;;;;;;8.63;7.32;;;12.70;99.90;;;;;;5094138;28;20225;-79
2021/04/11 03:36:41;;;;;;;6.70;6.13;;;12.60;99.90;;;;;;5093670;28;20259;-79
2021/04/11 03:39:09;;;;;;;8.75;5.50;;;12.50;99.90;;;;;;5094103;28;20258;-79
2021/04/11 03:41:37;;;;;;;5.50;5.00;;;12.30;99.90;;;;;;5095230;28;20548;-79
2021/04/11 03:44:17;;;;;;;4.40;4.03;;;12.20;99.90;;;;;;5077532;28;20168;-78
2021/04/11 03:47:21;;;;;;;4.35;4.03;;;12.10;99.90;;;;;;5093683;28;20167;-78
2021/04/11 03:49:57;;;;;;;5.47;5.07;;;12.00;99.90;;;;;;5093942;28;20324;-78
2021/04/11 03:52:37;;;;;;;4.47;4.18;;;11.90;99.90;;;;;;5076568;28;20199;-78
2021/04/11 03:55:07;;;;;;;5.10;4.70;;;11.80;99.90;;;;;;5076786;28;20172;-78
2021/04/11 03:58:34;;;;;;;5.55;5.05;;;11.70;99.90;;;;;;5093344;28;20194;-80
2021/04/11 04:01:13;;;;;;;4.28;3.85;;;11.60;99.90;;;;;;5065366;28;20210;-79
2021/04/11 04:03:41;;;;;;;5.35;4.85;;;11.50;99.90;;;;;;5094025;28;20171;-79
2021/04/11 04:06:35;;;;;;;5.10;4.70;;;11.50;99.90;;;;;;5094071;28;20180;-79
2021/04/11 04:09:05;;;;;;;4.78;4.40;;;11.40;99.90;;;;;;5091873;28;20203;-79
2021/04/11 04:11:50;;;;;;;9.20;8.40;;;11.30;99.90;;;;;;5093507;28;20608;-79
2021/04/11 04:14:40;;;;;;;8.88;8.18;;;11.20;99.90;;;;;;5093249;28;20164;-79
2021/04/11 04:17:45;;;;;;;8.40;7.70;;;11.20;99.90;;;;;;5093087;28;20282;-79
2021/04/11 04:20:23;;;;;;;8.00;7.30;;;11.10;99.90;;;;;;5035583;28;20206;-80
2021/04/11 04:23:03;;;;;;;8.30;7.60;;;11.00;99.90;;;;;;5093344;28;20168;-79
2021/04/11 04:25:42;;;;;;;7.03;6.43;;;10.90;99.90;;;;;;5094354;28;20176;-80
2021/04/11 04:28:19;;;;;;;9.30;8.60;;;10.80;99.90;;;;;;5092703;28;20168;-79
2021/04/11 04:30:56;;;;;;;8.77;8.07;;;10.80;99.90;;;;;;5094186;28;20214;-79
2021/04/11 04:33:39;;;;;;;8.43;7.78;;;10.70;99.90;;;;;;5093010;28;20614;-79
2021/04/11 04:36:19;;;;;;;7.25;6.65;;;10.60;99.90;;;;;;5093018;28;20171;-79
2021/04/11 04:39:31;;;;;;;5.97;5.47;;;10.60;99.90;;;;;;5076429;28;20172;-79
2021/04/11 04:42:25;;;;;;;4.70;4.30;;;10.50;99.90;;;;;;5060263;28;20207;-79
2021/04/11 04:45:08;;;;;;;4.70;4.30;;;10.50;99.90;;;;;;5094014;28;20160;-79
2021/04/11 04:48:11;;;;;;;3.25;3.00;;;10.40;99.90;;;;;;5075456;28;20183;-79
2021/04/11 04:51:18;;;;;;;3.05;2.85;;;10.30;99.90;;;;;;5093799;28;20281;-79
2021/04/11 04:54:05;;;;;;;3.10;2.83;;;10.20;99.90;;;;;;5092736;28;20171;-80
2021/04/11 04:56:41;;;;;;;2.83;2.63;;;10.10;99.90;;;;;;5092450;28;20167;-80
2021/04/11 04:59:14;;;;;;;3.38;3.08;;;10.00;99.90;;;;;;5092627;28;20168;-79
2021/04/11 05:01:49;;;;;;;3.30;3.00;;;9.90;99.90;;;;;;5092589;28;20180;-79
2021/04/11 05:04:24;;;;;;;2.88;2.63;;;9.80;99.90;;;;;;5075711;28;20179;-80
2021/04/11 05:07:06;;;;;;;4.15;3.85;;;9.80;99.90;;;;;;5092257;28;20236;-79
2021/04/11 05:10:03;;;;;;;3.50;3.25;;;9.70;99.90;;;;;;5092410;28;20694;-80
2021/04/11 05:12:52;;;;;;;4.07;3.78;;;9.60;99.90;;;;;;5092315;28;20225;-79
2021/04/11 05:15:26;;;;;;;3.17;2.88;;;9.50;99.90;;;;;;5093927;28;20174;-79
2021/04/11 05:18:12;;;;;;;3.70;3.40;;;9.50;99.90;;;;;;5095817;28;20163;-80
2021/04/11 05:20:51;;;;;;;3.80;3.35;;;9.40;99.90;;;;;;5093030;28;20188;-80
2021/04/11 05:23:36;;;;;;;3.75;3.45;;;9.30;99.90;;;;;;5093028;28;20227;-78
2021/04/11 05:26:14;;;;;;;5.22;4.78;;;9.30;99.90;;;;;;5094768;28;20199;-78
2021/04/11 05:29:01;;;;;;;5.18;4.78;;;9.20;99.90;;;;;;5108394;28;20167;-79
2021/04/11 05:31:30;;;;;;;5.40;5.00;;;9.20;99.90;;;;;;5109917;28;20210;-79
2021/04/11 05:33:56;;;;;;;5.80;5.30;;;9.10;99.90;;;;;;5108420;28;20164;-78
2021/04/11 05:36:34;;;;;;;5.78;5.28;;;9.10;99.90;;;;;;5105692;28;20243;-77
2021/04/11 05:39:28;;;;;;;7.95;7.25;;;9.10;99.90;;;;;;5107147;28;20583;-79
2021/04/11 05:42:17;;;;;;;8.27;7.57;;;9.10;99.90;;;;;;5098675;28;20195;-78
2021/04/11 05:45:13;;;;;;;8.10;7.40;;;9.00;99.90;;;;;;5093993;28;20176;-78
2021/04/11 05:47:53;;;;;;;7.95;7.25;;;9.00;99.90;;;;;;5080179;28;20251;-78
2021/04/11 05:50:21;;;;;;;5.80;5.30;;;9.00;99.90;;;;;;5093128;28;20195;-78
2021/04/11 05:53:03;;;;;;;5.90;5.40;;;9.00;99.90;;;;;;5093332;28;20171;-79
2021/04/11 05:55:55;;;;;;;5.47;4.97;;;8.90;99.90;;;;;;5096027;28;20167;-78
2021/04/11 05:58:24;;;;;;;6.47;5.95;;;8.90;99.90;;;;;;5091309;28;20538;-79
2021/04/11 06:01:06;;;;;;;6.45;5.85;;;8.90;99.90;;;;;;5091497;28;20180;-79
2021/04/11 06:03:35;;;;;;;5.05;4.65;;;8.80;99.90;;;;;;5091645;28;20535;-80
2021/04/11 06:06:13;;;;;;;5.55;5.15;;;8.80;99.90;;;;;;5091344;28;20229;-79
2021/04/11 06:08:50;;;;;;;5.10;4.60;;;8.80;99.90;;;;;;5092163;28;20171;-80
2021/04/11 06:11:39;;;;;;;4.35;3.90;;;8.70;99.90;;;;;;5092152;28;20198;-79
2021/04/11 06:14:22;;;;;;;4.82;4.50;;;8.70;99.90;;;;;;5091212;28;20178;-79
2021/04/11 06:16:50;;;;;;;3.80;3.50;;;8.60;99.90;;;;;;5090779;28;20262;-79
2021/04/11 06:19:17;;;;;;;5.90;5.40;;;8.60;99.90;;;;;;5091010;28;20176;-79
2021/04/11 06:21:54;;;;;;;5.55;5.13;;;8.70;99.90;;;;;;5092338;28;20167;-79
2021/04/11 06:24:31;;;;;;;4.22;3.88;;;8.60;99.90;;;;;;5091165;28;20179;-79
2021/04/11 06:27:20;;;;;;;4.85;4.45;;;8.60;99.90;;;;;;5090726;28;20178;-79
2021/04/11 06:30:13;;;;;;;5.28;4.88;;;8.60;99.90;;;;;;5091959;28;20275;-80
2021/04/11 06:33:03;;;;;;;5.07;4.57;;;8.50;99.90;;;;;;5091935;28;20176;-79
2021/04/11 06:35:44;;;;;;;5.30;4.90;;;8.50;99.90;;;;;;5091081;28;20182;-79
2021/04/11 06:38:15;;;;;;;5.28;4.82;;;8.50;99.90;;;;;;5089541;28;20527;-79
2021/04/11 06:41:07;;;;;;;5.55;5.05;;;8.50;99.90;;;;;;5090441;28;20215;-79
2021/04/11 06:43:47;;;;;;;7.78;7.05;;;8.50;99.90;;;;;;5073904;28;20504;-79
2021/04/11 06:46:35;;;;;;;6.30;5.80;;;8.40;99.90;;;;;;5092044;28;20580;-79
2021/04/11 06:49:35;;;;;;;6.38;5.78;;;8.40;99.90;;;;;;5091928;28;20513;-80
2021/04/11 06:52:29;;;;;;;7.40;6.70;;;8.40;99.90;;;;;;5091680;28;20211;-81
2021/04/11 06:55:33;;;;;;;7.13;6.53;;;8.30;99.90;;;;;;5072036;28;20532;-80
2021/04/11 06:58:39;;;;;;;10.32;9.43;;;8.30;99.90;;;;;;5078496;28;20183;-79
2021/04/11 07:02:01;;;;;;;9.32;8.43;;;8.30;99.90;;;;;;5082310;28;20192;-80
2021/04/11 07:04:36;;;;;;;8.50;7.63;;;8.20;99.90;;;;;;5038043;28;20197;-80
2021/04/11 07:07:37;;;;;;;14.50;11.23;;;8.20;99.90;;;;;;5081665;28;20163;-80
2021/04/11 07:10:40;;;;;;;11.30;10.13;;;8.20;99.90;;;;;;5085268;28;20195;-80
2021/04/11 07:13:55;;;;;;;12.35;11.10;;;8.20;99.90;;;;;;5082406;28;20634;-80
2021/04/11 07:16:59;;;;;;;7.82;7.13;;;8.20;99.90;;;;;;5081625;28;20179;-80
2021/04/11 07:19:52;;;;;;;7.20;6.50;;;8.10;99.90;;;;;;5079111;28;20618;-80
2021/04/11 07:22:52;;;;;;;6.30;5.70;;;8.10;99.90;;;;;;5080499;28;20254;-80
2021/04/11 07:25:44;;;;;;;5.72;4.55;;;8.10;99.90;;;;;;5088595;28;20176;-80
2021/04/11 07:28:34;;;;;;;5.18;4.70;;;8.10;99.90;;;;;;5080299;28;20180;-80
2021/04/11 07:31:10;;;;;;;7.28;6.57;;;8.00;99.90;;;;;;5084549;28;22059;-80
2021/04/11 07:33:54;;;;;;;7.43;6.72;;;8.10;99.90;;;;;;5103339;28;20167;-80
2021/04/11 07:36:59;;;;;;;8.60;7.80;;;8.00;99.90;;;;;;5087372;28;20297;-80
2021/04/11 07:39:31;;;;;;;8.60;7.80;;;8.00;99.90;;;;;;5081197;28;20208;-80
2021/04/11 07:42:43;;;;;;;8.50;7.70;;;8.00;99.90;;;;;;5076645;28;20164;-80
2021/04/11 07:45:27;;;;;;;8.05;7.13;;;8.00;99.90;;;;;;5071389;28;20187;-79
2021/04/11 07:48:08;;;;;;;6.80;6.20;;;8.00;99.90;;;;;;5072713;28;20255;-80
2021/04/11 07:51:01;;;;;;;6.85;5.70;;;8.00;99.90;;;;;;5073154;28;20203;-80
2021/04/11 07:53:49;;;;;;;8.02;7.00;;;8.00;99.90;;;;;;5082208;28;20250;-80
2021/04/11 07:56:28;;;;;;;7.40;6.78;;;8.00;99.90;;;;;;5056894;28;20178;-80
2021/04/11 07:59:12;;;;;;;6.07;5.47;;;8.00;99.90;;;;;;5073456;28;20578;-80
2021/04/11 08:01:53;;;;;;;6.75;6.10;;;8.10;99.90;;;;;;5081833;28;20548;-80
2021/04/11 08:04:49;;;;;;;7.53;6.05;;;8.10;99.90;;;;;;5078492;28;20175;-80
2021/04/11 08:07:42;;;;;;;6.70;5.32;;;8.10;99.90;;;;;;5079913;28;20600;-80
2021/04/11 08:10:45;;;;;;;6.70;6.00;;;8.10;99.90;;;;;;5092365;28;20242;-80
2021/04/11 08:13:25;;;;;;;5.47;4.88;;;8.10;99.90;;;;;;5091351;28;20175;-80
2021/04/11 08:16:48;;;;;;;3.83;3.40;;;8.10;99.90;;;;;;5059975;28;20171;-80
2021/04/11 08:19:30;;;;;;;4.40;4.10;;;8.10;99.90;;;;;;5012483;28;20728;-79
2021/04/11 08:22:22;;;;;;;4.47;3.42;;;8.10;99.90;;;;;;5012905;28;20198;-79
2021/04/11 08:25:07;;;;;;;4.50;4.10;;;8.10;99.90;;;;;;5077189;28;20547;-78
2021/04/11 08:27:54;;;;;;;3.72;3.42;;;8.10;99.90;;;;;;5094029;28;20159;-79
2021/04/11 08:30:50;;;;;;;4.20;3.42;;;8.10;99.90;;;;;;5092737;28;20208;-79
2021/04/11 08:33:53;;;;;;;4.03;3.67;;;8.10;99.90;;;;;;5083057;28;20172;-80
2021/04/11 08:36:46;;;;;;;3.75;3.45;;;8.10;99.90;;;;;;5084333;28;20179;-79
2021/04/11 08:39:34;;;;;;;4.07;3.63;;;8.10;99.90;;;;;;5089529;28;20262;-79
2021/04/11 08:42:18;;;;;;;3.80;3.50;;;8.10;99.90;;;;;;5086730;28;20198;-79
2021/04/11 08:45:02;;;;;;;3.38;3.08;;;8.10;99.90;;;;;;5091250;28;20604;-80
2021/04/11 08:47:44;;;;;;;3.63;3.10;;;8.00;99.90;;;;;;5083791;28;20179;-79
2021/04/11 08:50:31;;;;;;;3.53;2.33;;;8.00;99.90;;;;;;5076183;28;20675;-80
2021/04/11 08:53:27;;;;;;;2.15;1.95;;;8.00;99.90;;;;;;5073745;28;20179;-80
2021/04/11 08:56:14;;;;;;;2.17;1.80;;;8.00;99.90;;;;;;5073701;28;20236;-80
2021/04/11 08:59:06;;;;;;;2.78;2.38;;;7.90;99.90;;;;;;5073397;28;20176;-80
2021/04/11 09:01:54;;;;;;;2.47;1.80;;;7.90;99.90;;;;;;5086058;28;20250;-80
2021/04/11 09:04:51;;;;;;;2.08;1.35;;;7.90;99.90;;;;;;5083633;28;20237;-79
2021/04/11 09:07:37;;;;;;;1.92;1.55;;;8.00;99.90;;;;;;5092118;28;20217;-79
2021/04/11 09:10:36;;;;;;;1.90;1.40;;;8.00;99.90;;;;;;5092444;28;20548;-80
2021/04/11 09:13:13;;;;;;;1.58;1.30;;;8.00;99.90;;;;;;5093794;28;20164;-79
2021/04/11 09:15:49;;;;;;;1.92;1.83;;;8.00;99.90;;;;;;5092199;28;20284;-78
2021/04/11 09:18:48;;;;;;;2.13;1.60;;;8.00;99.90;;;;;;5074923;28;20183;-78
2021/04/11 09:21:33;;;;;;;3.10;1.98;;;8.00;99.90;;;;;;5092046;28;20215;-77
2021/04/11 09:24:17;;;;;;;1.55;1.20;;;8.00;99.90;;;;;;5091950;28;20167;-78
2021/04/11 09:26:42;;;;;;;1.80;1.30;;;8.00;99.90;;;;;;5092999;28;20155;-79
2021/04/11 09:29:29;;;;;;;1.57;1.30;;;7.90;99.90;;;;;;5093001;28;20212;-78
2021/04/11 09:32:23;;;;;;;1.58;1.30;;;8.00;99.90;;;;;;5075440;28;20307;-81
2021/04/11 09:35:33;;;;;;;1.40;1.17;;;7.90;99.90;;;;;;5091916;28;20258;-80
2021/04/11 09:38:31;;;;;;;1.95;1.30;;;7.90;99.90;;;;;;5077792;28;20205;-80
2021/04/11 09:41:21;;;;;;;1.55;1.20;;;7.90;99.90;;;;;;5062615;28;20622;-81
2021/04/11 09:44:06;;;;;;;2.88;1.23;;;7.90;99.90;;;;;;5087222;28;20603;-80
2021/04/11 09:46:45;;;;;;;1.60;1.20;;;7.90;99.90;;;;;;5073051;28;20190;-82
2021/04/11 09:49:33;;;;;;;1.38;1.15;;;7.90;99.90;;;;;;5078060;28;20163;-79
2021/04/11 09:52:25;;;;;;;1.80;1.20;;;7.80;99.90;;;;;;5092624;28;20574;-83
2021/04/11 09:55:24;;;;;;;2.00;1.80;;;7.90;99.90;;;;;;5095888;28;20526;-84
2021/04/11 09:58:08;;;;;;;2.97;1.42;;;7.80;99.90;;;;;;5091171;28;20510;-81
2021/04/11 10:00:43;;;;;;;1.73;1.30;;;7.90;99.90;;;;;;5054799;28;20254;-84
2021/04/11 10:03:40;;;;;;;1.40;1.30;;;7.90;99.90;;;;;;5077684;28;20291;-82
2021/04/11 10:06:25;;;;;;;1.55;1.45;;;7.90;99.90;;;;;;5073470;28;20313;-84
2021/04/11 10:09:07;;;;;;;1.60;1.27;;;7.90;99.90;;;;;;5079410;28;20195;-84
2021/04/11 10:11:43;;;;;;;1.88;1.77;;;7.80;99.90;;;;;;5082431;28;20198;-85
2021/04/11 10:14:22;;;;;;;2.00;1.75;;;7.90;99.90;;;;;;5089346;28;20225;-84
2021/04/11 10:17:19;;;;;;;1.30;1.17;;;7.90;99.90;;;;;;5099689;28;20171;-83
2021/04/11 10:19:58;;;;;;;1.20;0.80;;;7.90;99.90;;;;;;5096885;28;20199;-83
2021/04/11 10:22:30;;;;;;;1.40;1.10;;;7.90;99.90;;;;;;5104106;28;20199;-84
2021/04/11 10:25:29;;;;;;;1.60;1.17;;;7.80;99.90;;;;;;5101960;28;20251;-85
2021/04/11 10:28:05;;;;;;;2.13;0.80;;;7.80;99.90;;;;;;5086854;28;20175;-84
2021/04/11 10:30:34;;;;;;;1.30;0.90;;;7.80;99.90;;;;;;5072974;28;20196;-85
2021/04/11 10:33:26;;;;;;;1.10;0.80;;;7.80;99.90;;;;;;5082125;28;20176;-84
2021/04/11 10:36:11;;;;;;;1.63;0.90;;;7.80;99.90;;;;;;5076178;28;20192;-82
2021/04/11 10:38:49;;;;;;;1.40;1.15;;;7.70;99.90;;;;;;5081170;28;20234;-83
2021/04/11 10:41:44;;;;;;;1.85;1.48;;;7.80;99.90;;;;;;5082734;28;20312;-83
2021/04/11 10:44:31;;;;;;;1.17;0.82;;;7.70;99.90;;;;;;5078518;28;20168;-81
2021/04/11 10:47:33;;;;;;;1.10;0.80;;;7.70;99.90;;;;;;5079099;28;20180;-82
2021/04/11 10:50:21;;;;;;;2.00;1.00;;;7.80;99.90;;;;;;5079788;28;20192;-83
2021/04/11 10:52:52;;;;;;;1.20;0.88;;;7.80;99.90;;;;;;5085990;28;20167;-83
2021/04/11 10:55:24;;;;;;;1.73;0.90;;;7.80;99.90;;;;;;5100457;28;20635;-82
2021/04/11 10:58:08;;;;;;;1.40;0.93;;;7.80;99.90;;;;;;5100685;28;20617;-81
2021/04/11 11:01:11;;;;;;;1.20;1.00;;;7.90;99.90;;;;;;5102653;28;20189;-78
2021/04/11 11:03:40;;;;;;;1.60;1.15;;;7.90;99.90;;;;;;5100754;28;20532;-81
2021/04/11 11:06:49;;;;;;;1.30;1.20;;;7.80;99.90;;;;;;5099511;28;20172;-79
2021/04/11 11:09:44;;;;;;;1.58;0.93;;;7.80;99.90;;;;;;5097561;28;20304;-80
2021/04/11 11:12:22;;;;;;;1.10;1.00;;;7.90;99.90;;;;;;5082766;28;20267;-81
2021/04/11 11:15:16;;;;;;;1.63;0.90;;;7.90;99.90;;;;;;5088780;28;20159;-81
2021/04/11 11:18:10;;;;;;;1.45;1.20;;;7.90;99.90;;;;;;5093419;28;20532;-81
2021/04/11 11:20:49;;;;;;;1.40;0.82;;;8.00;99.90;;;;;;5049446;28;20287;-80
2021/04/11 11:23:52;;;;;;;1.25;1.02;;;7.90;99.90;;;;;;5086645;28;20558;-80
2021/04/11 11:26:54;;;;;;;2.10;1.90;;;7.90;99.90;;;;;;5093846;28;20163;-80
2021/04/11 11:29:54;;;;;;;2.80;2.60;;;7.90;99.90;;;;;;5090682;28;20227;-79
2021/04/11 11:32:44;;;;;;;3.00;2.80;;;7.90;99.90;;;;;;5086544;28;20582;-80
2021/04/11 11:35:13;;;;;;;4.25;3.95;;;7.90;99.90;;;;;;5083480;28;20527;-79
2021/04/11 11:37:55;;;;;;;5.65;5.25;;;7.90;99.90;;;;;;5080887;28;20176;-79
2021/04/11 11:40:39;;;;;;;5.95;5.55;;;7.80;99.90;;;;;;5074414;28;20199;-78
2021/04/11 11:43:47;;;;;;;7.13;6.60;;;7.80;99.90;;;;;;5082333;28;20590;-79
2021/04/11 11:46:37;;;;;;;6.40;5.90;;;7.90;99.90;;;;;;5063189;28;20539;-80
2021/04/11 11:49:14;;;;;;;5.90;5.50;;;7.90;99.90;;;;;;5092524;28;20298;-79
2021/04/11 11:51:55;;;;;;;8.02;6.53;;;7.80;99.90;;;;;;5101186;28;20224;-80
2021/04/11 11:54:25;;;;;;;3.53;3.22;;;7.80;99.90;;;;;;5110404;28;20191;-81
2021/04/11 11:57:13;;;;;;;2.67;2.47;;;7.80;99.90;;;;;;5075258;28;20171;-80
2021/04/11 11:59:41;;;;;;;2.60;2.40;;;7.80;99.90;;;;;;5108094;28;20191;-80
2021/04/11 12:02:49;;;;;;;2.22;1.70;;;7.80;99.90;;;;;;5092344;28;20481;-80
2021/04/11 12:05:25;;;;;;;1.63;1.52;;;7.80;99.90;;;;;;5099356;28;20216;-81
2021/04/11 12:08:11;;;;;;;1.63;1.50;;;7.80;99.90;;;;;;5075709;28;20194;-81
2021/04/11 12:11:06;;;;;;;1.50;1.20;;;7.80;99.90;;;;;;5104796;28;20393;-81
2021/04/11 12:13:44;;;;;;;1.60;1.30;;;7.90;99.90;;;;;;5103964;28;20250;-80
2021/04/11 12:16:27;;;;;;;1.33;0.98;;;7.90;99.90;;;;;;5116038;28;20167;-80
2021/04/11 12:19:20;;;;;;;1.45;1.02;;;7.90;99.90;;;;;;5104910;28;20214;-82
2021/04/11 12:21:49;;;;;;;1.60;1.05;;;8.00;99.90;;;;;;5081267;28;20199;-80
2021/04/11 12:24:26;;;;;;;1.20;0.80;;;8.00;99.90;;;;;;5075272;28;20211;-80
2021/04/11 12:26:55;;;;;;;1.23;0.70;;;7.90;99.90;;;;;;5099688;22;20293;-76
2021/04/11 12:29:27;;;;;;;1.20;0.80;;;7.90;99.90;;;;;;5089913;28;20175;-76
2021/04/11 12:32:03;;;;;;;1.77;1.10;;;7.90;99.90;;;;;;5069320;28;20212;-77
2021/04/11 12:34:41;;;;;;;2.13;1.73;;;8.00;99.90;;;;;;5066037;28;20180;-76
2021/04/11 12:37:13;;;;;;;2.25;2.00;;;8.00;99.90;;;;;;5084792;28;20192;-76
2021/04/11 12:39:39;;;;;;;3.55;3.25;;;8.00;99.90;;;;;;5073924;28;20551;-76
2021/04/11 12:42:26;;;;;;;3.75;3.45;;;8.10;99.90;;;;;;5073729;28;20184;-76
2021/04/11 12:45:09;;;;;;;4.38;3.97;;;8.10;99.90;;;;;;5068440;28;20631;-76
2021/04/11 12:47:38;;;;;;;5.20;4.72;;;8.20;99.90;;;;;;5073178;28;20205;-75
2021/04/11 12:50:28;;;;;;;6.07;5.68;;;8.30;99.90;;;;;;5075978;28;20564;-77
2021/04/11 12:53:15;;;;;;;5.15;4.65;;;8.40;99.90;;;;;;5074565;28;20169;-77
2021/04/11 12:56:03;;;;;;;7.05;6.45;;;8.50;99.90;;;;;;5055734;28;20218;-76
2021/04/11 12:58:35;;;;;;;8.05;7.45;;;8.60;99.90;;;;;;5038969;28;20199;-76
2021/04/11 13:01:25;;;;;;;6.97;6.40;;;8.60;99.90;;;;;;5055680;28;20249;-76
2021/04/11 13:04:03;;;;;;;8.07;7.38;;;8.60;99.90;;;;;;5055758;28;20161;-77
2021/04/11 13:06:55;;;;;;;8.30;7.65;;;8.50;99.90;;;;;;5076316;28;20176;-77
2021/04/11 13:09:27;;;;;;;8.07;7.47;;;8.50;99.90;;;;;;5055828;28;20169;-76
2021/04/11 13:12:17;;;;;;;8.40;7.70;;;8.50;99.90;;;;;;5035140;28;20189;-76
2021/04/11 13:14:52;;;;;;;8.48;7.88;;;8.40;99.90;;;;;;5053189;28;20169;-77
2021/04/11 13:17:43;;;;;;;7.13;6.53;;;8.40;99.90;;;;;;5052323;28;20188;-76
2021/04/11 13:20:22;;;;;;;6.35;5.85;;;8.40;99.90;;;;;;5022139;28;20531;-76
2021/04/11 13:23:28;;;;;;;8.07;7.47;;;8.40;99.90;;;;;;5061442;28;20616;-76
2021/04/11 13:26:11;;;;;;;8.13;7.43;;;8.50;99.90;;;;;;5035570;28;20592;-76
2021/04/11 13:28:46;;;;;;;7.20;6.60;;;8.50;99.90;;;;;;5035296;28;20176;-76
2021/04/11 13:31:25;;;;;;;7.60;6.90;;;8.50;99.90;;;;;;5019265;28;20211;-75
2021/04/11 13:33:59;;;;;;;8.75;8.00;;;8.50;99.90;;;;;;5054489;28;20287;-81
2021/04/11 13:36:37;;;;;;;6.80;6.20;;;8.50;99.90;;;;;;5037042;28;20276;-82
2021/04/11 13:39:32;;;;;;;9.98;9.18;;;8.40;99.90;;;;;;5056507;28;20200;-82
2021/04/11 13:42:19;;;;;;;8.80;8.00;;;8.40;99.90;;;;;;5053403;28;20216;-81
2021/04/11 13:44:57;;;;;;;9.00;8.23;;;8.40;99.90;;;;;;5060394;28;20200;-82
2021/04/11 13:47:33;;;;;;;8.45;7.70;;;8.50;99.90;;;;;;5035175;28;20211;-82
2021/04/11 13:50:04;;;;;;;8.15;7.35;;;8.50;99.90;;;;;;5054716;28;20177;-81
2021/04/11 13:52:45;;;;;;;9.57;8.68;;;8.50;99.90;;;;;;5058831;28;20259;-82
2021/04/11 13:55:25;;;;;;;8.50;7.70;;;8.60;99.90;;;;;;5072921;28;20183;-82
2021/04/11 13:58:18;;;;;;;8.90;8.10;;;8.60;99.90;;;;;;5076948;28;20196;-81
2021/04/11 14:01:05;;;;;;;11.57;10.52;;;8.70;99.90;;;;;;5053049;28;20168;-80
2021/04/11 14:03:40;;;;;;;9.68;8.65;;;8.70;99.90;;;;;;5070481;28;20179;-80
2021/04/11 14:06:12;;;;;;;10.18;9.20;;;8.80;99.90;;;;;;5069103;28;20633;-81
2021/04/11 14:08:58;;;;;;;11.43;9.35;;;8.80;99.90;;;;;;5058103;28;20166;-80